Test XHTML 1.0 Strict Page for WU-History Testing
Station Historical Data
 
Daily Summary for September 28, 2016 Units:  Both    English   Metric
« Previous Day
Next Day »
Daily Weekly Monthly Yearly Custom
  Current: High: Low: Average:
Temperature: 54.3 °F /  12.4 °C 54.3 °F /  12.4 °C 49.6 °F /  9.8 °C 51.7 °F /  10.9 °C
Dew Point: 54.3 °F /  12.4 °C 54.3 °F /  12.4 °C 49.6 °F /  9.8 °C 51.7 °F /  10.9 °C
Humidity: 100 % 100 % 100 % 100 %
Wind Speed: 5.8 mph /  9.3 km/h 6.9 mph /  11.1 km/h - 1 mph /  1.6 km/h
Wind Gust: 0.0 mph /  0 km/h 6.9 mph /  11.1 km/h - -
Wind:NNE - - South
Pressure: 30.19 in /  1022.2 hPa 30.21 in /  1022.9 hPa 30.19 in /  1022.2 hPa -
Precipitation: 0.00 in /  0 mm      
Historical Graphs
 
 
Weather-Above Climate History
Untitled
Tabular Data for September 28, 2016
Time Temperature Dew Point Pressure Wind Wind Speed Wind Gust Humidity Rainfall Rate (Hourly) solar Conditions
00:02 50.9 °F /  10.5 °C 50.9 °F /  10.5 °C 30.20 in /  1022.6 hPa NW 1.2 mph /  1.9 km/h 1.2 mph /  1.9 km/h 100 % 0.00 in /  0 mm 0.0 W/m2 CLR
00:07 51.1 °F /  10.6 °C 51.1 °F /  10.6 °C 30.20 in /  1022.6 hPa Calm     100 % 0.00 in /  0 mm 0.0 W/m2 CLR
00:12 50.7 °F /  10.4 °C 50.7 °F /  10.4 °C 30.20 in /  1022.6 hPa Calm     100 % 0.00 in /  0 mm 7.0 W/m2 CLR
00:17 50.7 °F /  10.4 °C 50.7 °F /  10.4 °C 30.19 in /  1022.2 hPa Calm     100 % 0.00 in /  0 mm 0.0 W/m2 CLR
00:22 50.4 °F /  10.2 °C 50.4 °F /  10.2 °C 30.19 in /  1022.2 hPa Calm     100 % 0.00 in /  0 mm 0.0 W/m2 CLR
00:27 50.2 °F /  10.1 °C 50.2 °F /  10.1 °C 30.19 in /  1022.2 hPa Calm     100 % 0.00 in /  0 mm 7.0 W/m2 CLR
00:32 50.4 °F /  10.2 °C 50.4 °F /  10.2 °C 30.19 in /  1022.2 hPa Calm     100 % 0.00 in /  0 mm 0.0 W/m2 CLR
00:37 50.2 °F /  10.1 °C 50.2 °F /  10.1 °C 30.19 in /  1022.2 hPa Calm     100 % 0.00 in /  0 mm 0.0 W/m2 CLR
00:42 50.0 °F /  10 °C 50.0 °F /  10 °C 30.19 in /  1022.2 hPa Calm     100 % 0.00 in /  0 mm 0.0 W/m2 CLR
00:47 50.0 °F /  10 °C 50.0 °F /  10 °C 30.19 in /  1022.2 hPa Calm     100 % 0.00 in /  0 mm 0.0 W/m2 CLR
00:52 50.0 °F /  10 °C 50.0 °F /  10 °C 30.21 in /  1022.9 hPa Calm     100 % 0.00 in /  0 mm 0.0 W/m2 CLR
00:57 49.8 °F /  9.9 °C 49.8 °F /  9.9 °C 30.19 in /  1022.2 hPa Calm     100 % 0.00 in /  0 mm 0.0 W/m2 CLR
01:02 49.6 °F /  9.8 °C 49.6 °F /  9.8 °C 30.19 in /  1022.2 hPa Calm     100 % 0.00 in /  0 mm 7.0 W/m2 RA
01:07 49.6 °F /  9.8 °C 49.6 °F /  9.8 °C 30.19 in /  1022.2 hPa Calm     100 % 0.00 in /  0 mm 0.0 W/m2 RA
01:13 49.6 °F /  9.8 °C 49.6 °F /  9.8 °C 30.19 in /  1022.2 hPa Calm     100 % 0.00 in /  0 mm 49.0 W/m2 CLR
01:18 49.6 °F /  9.8 °C 49.6 °F /  9.8 °C 30.19 in /  1022.2 hPa Calm     100 % 0.00 in /  0 mm 0.0 W/m2 CLR
01:23 49.6 °F /  9.8 °C 49.6 °F /  9.8 °C 30.19 in /  1022.2 hPa Calm     100 % 0.00 in /  0 mm 0.0 W/m2 CLR
01:28 50.0 °F /  10 °C 50.0 °F /  10 °C 30.19 in /  1022.2 hPa Calm     100 % 0.00 in /  0 mm 8.0 W/m2 CLR
01:38 49.8 °F /  9.9 °C 49.8 °F /  9.9 °C 30.19 in /  1022.2 hPa WNW 1.2 mph /  1.9 km/h   100 % 0.00 in /  0 mm 0.0 W/m2 CLR
01:43 50.2 °F /  10.1 °C 50.2 °F /  10.1 °C 30.19 in /  1022.2 hPa ESE 0.8 mph /  1.3 km/h   100 % 0.00 in /  0 mm 0.0 W/m2 CLR
01:48 50.2 °F /  10.1 °C 50.2 °F /  10.1 °C 30.19 in /  1022.2 hPa Calm     100 % 0.00 in /  0 mm 8.0 W/m2 CLR
01:53 50.0 °F /  10 °C 50.0 °F /  10 °C 30.19 in /  1022.2 hPa NW 2.6 mph /  4.2 km/h 2.6 mph /  4.2 km/h 100 % 0.00 in /  0 mm 0.0 W/m2 CLR
01:58 50.4 °F /  10.2 °C 50.4 °F /  10.2 °C 30.19 in /  1022.2 hPa Calm     100 % 0.00 in /  0 mm 0.0 W/m2 CLR
02:08 50.7 °F /  10.4 °C 50.7 °F /  10.4 °C 30.20 in /  1022.6 hPa Calm     100 % 0.00 in /  0 mm 0.0 W/m2 CLR
02:13 50.9 °F /  10.5 °C 50.9 °F /  10.5 °C 30.19 in /  1022.2 hPa SW 1.2 mph /  1.9 km/h 1.2 mph /  1.9 km/h 100 % 0.00 in /  0 mm 0.0 W/m2 CLR
02:18 50.9 °F /  10.5 °C 50.9 °F /  10.5 °C 30.19 in /  1022.2 hPa NE 4.8 mph /  7.7 km/h 4.8 mph /  7.7 km/h 100 % 0.00 in /  0 mm 28.0 W/m2 CLR
02:23 50.9 °F /  10.5 °C 50.9 °F /  10.5 °C 30.19 in /  1022.2 hPa Calm     100 % 0.00 in /  0 mm 0.0 W/m2 CLR
02:28 51.3 °F /  10.7 °C 51.3 °F /  10.7 °C 30.20 in /  1022.6 hPa Calm     100 % 0.00 in /  0 mm 0.0 W/m2 CLR
02:33 50.7 °F /  10.4 °C 50.7 °F /  10.4 °C 30.19 in /  1022.2 hPa Calm     100 % 0.00 in /  0 mm 7.0 W/m2 CLR
02:38 50.5 °F /  10.3 °C 50.5 °F /  10.3 °C 30.19 in /  1022.2 hPa Calm     100 % 0.00 in /  0 mm 7.0 W/m2 CLR
02:53 50.0 °F /  10 °C 50.0 °F /  10 °C 30.19 in /  1022.2 hPa Calm     100 % 0.00 in /  0 mm 7.0 W/m2 CLR
02:58 50.7 °F /  10.4 °C 50.7 °F /  10.4 °C 30.19 in /  1022.2 hPa Calm     100 % 0.00 in /  0 mm 0.0 W/m2 CLR
03:03 50.7 °F /  10.4 °C 50.7 °F /  10.4 °C 30.19 in /  1022.2 hPa Calm     100 % 0.00 in /  0 mm 7.0 W/m2 CLR
03:08 50.7 °F /  10.4 °C 50.7 °F /  10.4 °C 30.19 in /  1022.2 hPa ESE 1.4 mph /  2.3 km/h   100 % 0.00 in /  0 mm 7.0 W/m2 CLR
03:13 51.4 °F /  10.8 °C 51.4 °F /  10.8 °C 30.19 in /  1022.2 hPa NW 6.9 mph /  11.1 km/h 6.9 mph /  11.1 km/h 100 % 0.00 in /  0 mm 40.0 W/m2 CLR
03:18 51.3 °F /  10.7 °C 51.3 °F /  10.7 °C 30.19 in /  1022.2 hPa Calm     100 % 0.00 in /  0 mm 7.0 W/m2 CLR
03:23 51.4 °F /  10.8 °C 51.4 °F /  10.8 °C 30.19 in /  1022.2 hPa Calm     100 % 0.00 in /  0 mm 52.0 W/m2 CLR
03:28 51.6 °F /  10.9 °C 51.6 °F /  10.9 °C 30.19 in /  1022.2 hPa South 2.3 mph /  3.7 km/h 2.3 mph /  3.7 km/h 100 % 0.00 in /  0 mm 31.0 W/m2
03:33 52.0 °F /  11.1 °C 52.0 °F /  11.1 °C 30.19 in /  1022.2 hPa NE 1.2 mph /  1.9 km/h 1.2 mph /  1.9 km/h 100 % 0.00 in /  0 mm 0.0 W/m2
03:38 52.2 °F /  11.2 °C 52.2 °F /  11.2 °C 30.19 in /  1022.2 hPa SSW 1.2 mph /  1.9 km/h   100 % 0.00 in /  0 mm 6.0 W/m2
03:43 52.5 °F /  11.4 °C 52.5 °F /  11.4 °C 30.19 in /  1022.2 hPa West 2.3 mph /  3.7 km/h 2.3 mph /  3.7 km/h 100 % 0.00 in /  0 mm 7.0 W/m2
03:48 52.7 °F /  11.5 °C 52.7 °F /  11.5 °C 30.19 in /  1022.2 hPa Calm     100 % 0.00 in /  0 mm 0.0 W/m2 CLR
03:53 52.9 °F /  11.6 °C 52.9 °F /  11.6 °C 30.19 in /  1022.2 hPa NE 1.2 mph /  1.9 km/h 1.2 mph /  1.9 km/h 100 % 0.00 in /  0 mm 0.0 W/m2 CLR
03:58 52.9 °F /  11.6 °C 52.9 °F /  11.6 °C 30.19 in /  1022.2 hPa ENE 2.1 mph /  3.4 km/h 2.1 mph /  3.4 km/h 100 % 0.00 in /  0 mm 7.0 W/m2 CLR
04:03 52.7 °F /  11.5 °C 52.7 °F /  11.5 °C 30.19 in /  1022.2 hPa Calm     100 % 0.00 in /  0 mm 0.0 W/m2 CLR
04:08 52.7 °F /  11.5 °C 52.7 °F /  11.5 °C 30.19 in /  1022.2 hPa Calm     100 % 0.00 in /  0 mm 0.0 W/m2 CLR
04:13 52.7 °F /  11.5 °C 52.7 °F /  11.5 °C 30.19 in /  1022.2 hPa Calm     100 % 0.00 in /  0 mm 7.0 W/m2
04:18 53.1 °F /  11.7 °C 53.1 °F /  11.7 °C 30.19 in /  1022.2 hPa WSW 5.8 mph /  9.3 km/h 5.8 mph /  9.3 km/h 100 % 0.00 in /  0 mm 0.0 W/m2
04:23 53.1 °F /  11.7 °C 53.1 °F /  11.7 °C 30.20 in /  1022.6 hPa WNW 2.5 mph /  4 km/h 2.5 mph /  4 km/h 100 % 0.00 in /  0 mm 0.0 W/m2
04:28 53.2 °F /  11.8 °C 53.2 °F /  11.8 °C 30.19 in /  1022.2 hPa Calm     100 % 0.00 in /  0 mm 13.0 W/m2
04:33 53.2 °F /  11.8 °C 53.2 °F /  11.8 °C 30.19 in /  1022.2 hPa Calm     100 % 0.00 in /  0 mm 7.0 W/m2
04:38 53.4 °F /  11.9 °C 53.4 °F /  11.9 °C 30.19 in /  1022.2 hPa Calm     100 % 0.00 in /  0 mm 0.0 W/m2
04:43 53.4 °F /  11.9 °C 53.4 °F /  11.9 °C 30.20 in /  1022.6 hPa SSW 2.3 mph /  3.7 km/h 2.3 mph /  3.7 km/h 100 % 0.00 in /  0 mm 0.0 W/m2
04:48 53.4 °F /  11.9 °C 53.4 °F /  11.9 °C 30.20 in /  1022.6 hPa Calm     100 % 0.00 in /  0 mm 16.0 W/m2
04:58 53.4 °F /  11.9 °C 53.4 °F /  11.9 °C 30.20 in /  1022.6 hPa Calm     100 % 0.00 in /  0 mm 0.0 W/m2
05:03 53.6 °F /  12 °C 53.6 °F /  12 °C 30.20 in /  1022.6 hPa Calm     100 % 0.00 in /  0 mm 54.0 W/m2 OVC
05:08 53.6 °F /  12 °C 53.6 °F /  12 °C 30.20 in /  1022.6 hPa Calm     100 % 0.00 in /  0 mm 0.0 W/m2
05:13 53.6 °F /  12 °C 53.6 °F /  12 °C 30.20 in /  1022.6 hPa ESE 4.6 mph /  7.4 km/h 4.6 mph /  7.4 km/h 100 % 0.00 in /  0 mm 0.0 W/m2
05:18 53.6 °F /  12 °C 53.6 °F /  12 °C 30.19 in /  1022.2 hPa Calm     100 % 0.00 in /  0 mm 7.0 W/m2
05:23 53.8 °F /  12.1 °C 53.8 °F /  12.1 °C 30.20 in /  1022.6 hPa SW 5.8 mph /  9.3 km/h 5.8 mph /  9.3 km/h 100 % 0.00 in /  0 mm 0.0 W/m2
05:28 54.3 °F /  12.4 °C 54.3 °F /  12.4 °C 30.19 in /  1022.2 hPa South 3.5 mph /  5.6 km/h 3.5 mph /  5.6 km/h 100 % 0.00 in /  0 mm 0.0 W/m2 OVC
05:33 54.3 °F /  12.4 °C 54.3 °F /  12.4 °C 30.19 in /  1022.2 hPa Calm     100 % 0.00 in /  0 mm 7.0 W/m2
05:38 54.3 °F /  12.4 °C 54.3 °F /  12.4 °C 30.19 in /  1022.2 hPa ESE 2.3 mph /  3.7 km/h 2.3 mph /  3.7 km/h 100 % 0.00 in /  0 mm 20.0 W/m2
05:43 54.3 °F /  12.4 °C 54.3 °F /  12.4 °C 30.19 in /  1022.2 hPa Calm     100 % 0.00 in /  0 mm 0.0 W/m2
05:53 54.1 °F /  12.3 °C 54.1 °F /  12.3 °C 30.19 in /  1022.2 hPa West 3.3 mph /  5.3 km/h 3.3 mph /  5.3 km/h 100 % 0.00 in /  0 mm 7.0 W/m2 CLR
05:58 54.3 °F /  12.4 °C 54.3 °F /  12.4 °C 30.19 in /  1022.2 hPa NNE 5.8 mph /  9.3 km/h   100 % 0.00 in /  0 mm 7.0 W/m2
Wether-Above
Compliments of Weather Underground - 1 mb
Welcome to Weather-Above
Cheddleton weather station supplies various organisations with data from our weather station one of them is the weather Underground this information displayed here is coming from the weather Underground server 

If any information is used please acknowledge the source to www weather-above.com or weather Underground